sensor_id;sensor_type;location;lat;lon;timestamp;pressure;altitude;pressure_sealevel;temperature;humidity
20424;BME280;10371;49.042;8.002;2023-07-29T00:00:43;99308.44;;;18.48;100.00
20424;BME280;10371;49.042;8.002;2023-07-29T00:01:43;99311.25;;;18.47;100.00
20424;BME280;10371;49.042;8.002;2023-07-29T00:02:44;99306.84;;;18.47;100.00
20424;BME280;10371;49.042;8.002;2023-07-29T00:03:44;99306.84;;;18.47;100.00
20424;BME280;10371;49.042;8.002;2023-07-29T00:04:44;99307.00;;;18.46;100.00
20424;BME280;10371;49.042;8.002;2023-07-29T00:05:44;99307.63;;;18.48;100.00
20424;BME280;10371;49.042;8.002;2023-07-29T00:06:45;99307.63;;;18.48;100.00
20424;BME280;10371;49.042;8.002;2023-07-29T00:07:45;99306.84;;;18.47;100.00
20424;BME280;10371;49.042;8.002;2023-07-29T00:08:45;99308.44;;;18.48;100.00
20424;BME280;10371;49.042;8.002;2023-07-29T00:09:46;99305.19;;;18.46;100.00
20424;BME280;10371;49.042;8.002;2023-07-29T00:10:46;99314.53;;;18.49;100.00
20424;BME280;10371;49.042;8.002;2023-07-29T00:11:46;99310.91;;;18.50;100.00
20424;BME280;10371;49.042;8.002;2023-07-29T00:12:47;99303.81;;;18.50;100.00
20424;BME280;10371;49.042;8.002;2023-07-29T00:13:47;99314.78;;;18.54;100.00
20424;BME280;10371;49.042;8.002;2023-07-29T00:14:50;99315.59;;;18.54;100.00
20424;BME280;10371;49.042;8.002;2023-07-29T00:15:50;99315.81;;;18.53;100.00
20424;BME280;10371;49.042;8.002;2023-07-29T00:16:50;99312.97;;;18.54;100.00
20424;BME280;10371;49.042;8.002;2023-07-29T00:17:50;99314.63;;;18.56;100.00
20424;BME280;10371;49.042;8.002;2023-07-29T00:18:51;99305.25;;;18.53;100.00
20424;BME280;10371;49.042;8.002;2023-07-29T00:19:51;99302.63;;;18.53;100.00
20424;BME280;10371;49.042;8.002;2023-07-29T00:20:51;99307.53;;;18.56;100.00
20424;BME280;10371;49.042;8.002;2023-07-29T00:21:52;99302.25;;;18.56;100.00
20424;BME280;10371;49.042;8.002;2023-07-29T00:22:52;99304.41;;;18.52;100.00
20424;BME280;10371;49.042;8.002;2023-07-29T00:23:54;99309.53;;;18.54;100.00
20424;BME280;10371;49.042;8.002;2023-07-29T00:24:57;99304.06;;;18.56;100.00
20424;BME280;10371;49.042;8.002;2023-07-29T00:25:59;99310.97;;;18.57;100.00
20424;BME280;10371;49.042;8.002;2023-07-29T00:26:59;99310.16;;;18.56;100.00
20424;BME280;10371;49.042;8.002;2023-07-29T00:27:59;99298.16;;;18.53;100.00
20424;BME280;10371;49.042;8.002;2023-07-29T00:29:00;99306.50;;;18.57;100.00
20424;BME280;10371;49.042;8.002;2023-07-29T00:30:00;99308.75;;;18.60;100.00
20424;BME280;10371;49.042;8.002;2023-07-29T00:31:02;99301.50;;;18.62;100.00
20424;BME280;10371;49.042;8.002;2023-07-29T00:32:02;99307.41;;;18.64;100.00
20424;BME280;10371;49.042;8.002;2023-07-29T00:33:02;99296.84;;;18.64;100.00
20424;BME280;10371;49.042;8.002;2023-07-29T00:34:03;99309.00;;;18.65;100.00
20424;BME280;10371;49.042;8.002;2023-07-29T00:35:03;99299.28;;;18.66;100.00
20424;BME280;10371;49.042;8.002;2023-07-29T00:36:04;99296.09;;;18.70;100.00
20424;BME280;10371;49.042;8.002;2023-07-29T00:37:04;99292.44;;;18.71;100.00
20424;BME280;10371;49.042;8.002;2023-07-29T00:38:06;99293.91;;;18.74;100.00
20424;BME280;10371;49.042;8.002;2023-07-29T00:39:06;99297.19;;;18.76;100.00
20424;BME280;10371;49.042;8.002;2023-07-29T00:40:19;99294.72;;;18.74;100.00
20424;BME280;10371;49.042;8.002;2023-07-29T00:41:21;99294.16;;;18.79;100.00
20424;BME280;10371;49.042;8.002;2023-07-29T00:42:21;99294.97;;;18.80;100.00
20424;BME280;10371;49.042;8.002;2023-07-29T00:43:22;99297.44;;;18.81;100.00
20424;BME280;10371;49.042;8.002;2023-07-29T00:44:22;99298.25;;;18.82;100.00
20424;BME280;10371;49.042;8.002;2023-07-29T00:45:24;99286.88;;;18.81;100.00
20424;BME280;10371;49.042;8.002;2023-07-29T00:46:27;99292.75;;;18.83;100.00
20424;BME280;10371;49.042;8.002;2023-07-29T00:47:28;99288.94;;;18.86;100.00
20424;BME280;10371;49.042;8.002;2023-07-29T00:48:28;99294.03;;;18.87;100.00
20424;BME280;10371;49.042;8.002;2023-07-29T00:49:29;99282.03;;;18.85;100.00
20424;BME280;10371;49.042;8.002;2023-07-29T00:50:30;99282.47;;;18.88;100.00
20424;BME280;10371;49.042;8.002;2023-07-29T00:51:31;99289.19;;;18.91;100.00
20424;BME280;10371;49.042;8.002;2023-07-29T00:52:31;99291.00;;;18.90;100.00
20424;BME280;10371;49.042;8.002;2023-07-29T00:53:32;99288.38;;;18.90;100.00
20424;BME280;10371;49.042;8.002;2023-07-29T00:54:32;99287.56;;;18.90;100.00
20424;BME280;10371;49.042;8.002;2023-07-29T00:55:32;99283.31;;;18.89;100.00
20424;BME280;10371;49.042;8.002;2023-07-29T00:56:32;99282.03;;;18.85;100.00
20424;BME280;10371;49.042;8.002;2023-07-29T00:57:33;99279.56;;;18.83;100.00
20424;BME280;10371;49.042;8.002;2023-07-29T00:58:35;99277.97;;;18.82;100.00
20424;BME280;10371;49.042;8.002;2023-07-29T00:59:35;99278.38;;;18.86;100.00
20424;BME280;10371;49.042;8.002;2023-07-29T01:00:36;99277.56;;;18.85;100.00
20424;BME280;10371;49.042;8.002;2023-07-29T01:01:37;99271.66;;;18.83;100.00
20424;BME280;10371;49.042;8.002;2023-07-29T01:02:37;99264.13;;;18.80;100.00
20424;BME280;10371;49.042;8.002;2023-07-29T01:03:37;99266.59;;;18.82;100.00
20424;BME280;10371;49.042;8.002;2023-07-29T01:04:38;99269.41;;;18.80;100.00
20424;BME280;10371;49.042;8.002;2023-07-29T01:08:46;99268.97;;;18.77;100.00
20424;BME280;10371;49.042;8.002;2023-07-29T01:10:01;99265.78;;;18.81;100.00
20424;BME280;10371;49.042;8.002;2023-07-29T01:11:11;99272.88;;;18.81;100.00
20424;BME280;10371;49.042;8.002;2023-07-29T01:12:36;99270.25;;;18.81;100.00
20424;BME280;10371;49.042;8.002;2023-07-29T01:13:54;99266.38;;;18.83;100.00
20424;BME280;10371;49.042;8.002;2023-07-29T01:15:00;99267.03;;;18.85;100.00
20424;BME280;10371;49.042;8.002;2023-07-29T01:16:07;99257.28;;;18.86;100.00
20424;BME280;10371;49.042;8.002;2023-07-29T01:17:15;99264.22;;;18.87;100.00
20424;BME280;10371;49.042;8.002;2023-07-29T01:18:22;99256.47;;;18.85;100.00
20424;BME280;10371;49.042;8.002;2023-07-29T01:20:43;99254.84;;;18.84;100.00
20424;BME280;10371;49.042;8.002;2023-07-29T01:21:13;99264.59;;;18.84;100.00
20424;BME280;10371;49.042;8.002;2023-07-29T01:22:16;99255.66;;;18.85;100.00
20424;BME280;10371;49.042;8.002;2023-07-29T01:23:23;99257.91;;;18.88;100.00
20424;BME280;10371;49.042;8.002;2023-07-29T01:24:24;99258.53;;;18.90;100.00
20424;BME280;10371;49.042;8.002;2023-07-29T01:25:24;99254.88;;;18.91;100.00
20424;BME280;10371;49.042;8.002;2023-07-29T01:26:24;99258.16;;;18.93;100.00
20424;BME280;10371;49.042;8.002;2023-07-29T01:27:25;99254.88;;;18.91;100.00
20424;BME280;10371;49.042;8.002;2023-07-29T01:28:26;99248.63;;;18.92;100.00
20424;BME280;10371;49.042;8.002;2023-07-29T01:29:27;99252.25;;;18.91;100.00
20424;BME280;10371;49.042;8.002;2023-07-29T01:30:34;99246.81;;;18.92;100.00
20424;BME280;10371;49.042;8.002;2023-07-29T01:31:42;99252.72;;;18.94;100.00
20424;BME280;10371;49.042;8.002;2023-07-29T01:33:54;99260.00;;;18.92;100.00
20424;BME280;10371;49.042;8.002;2023-07-29T01:35:03;99246.38;;;18.89;100.00
20424;BME280;10371;49.042;8.002;2023-07-29T01:36:16;99259.34;;;18.90;100.00
20424;BME280;10371;49.042;8.002;2023-07-29T01:37:22;99255.69;;;18.91;100.00
20424;BME280;10371;49.042;8.002;2023-07-29T01:38:35;99259.34;;;18.90;100.00
20424;BME280;10371;49.042;8.002;2023-07-29T01:39:36;99256.28;;;18.87;100.00
20424;BME280;10371;49.042;8.002;2023-07-29T01:40:37;99250.41;;;18.91;100.00
20424;BME280;10371;49.042;8.002;2023-07-29T01:41:39;99248.63;;;18.92;100.00
20424;BME280;10371;49.042;8.002;2023-07-29T01:42:40;99254.88;;;18.91;100.00
20424;BME280;10371;49.042;8.002;2023-07-29T01:43:40;99257.97;;;18.94;100.00
20424;BME280;10371;49.042;8.002;2023-07-29T01:44:44;99257.97;;;18.94;100.00
20424;BME280;10371;49.042;8.002;2023-07-29T01:45:44;99258.78;;;18.95;100.00
20424;BME280;10371;49.042;8.002;2023-07-29T01:46:45;99261.44;;;18.95;100.00
20424;BME280;10371;49.042;8.002;2023-07-29T01:47:45;99259.41;;;18.97;100.00
20424;BME280;10371;49.042;8.002;2023-07-29T01:48:45;99261.03;;;18.98;100.00
20424;BME280;10371;49.042;8.002;2023-07-29T01:49:46;99258.41;;;18.98;100.00
20424;BME280;10371;49.042;8.002;2023-07-29T01:50:46;99260.84;;;19.00;100.00
20424;BME280;10371;49.042;8.002;2023-07-29T01:51:46;99266.94;;;19.00;100.00
20424;BME280;10371;49.042;8.002;2023-07-29T01:52:46;99263.09;;;19.03;100.00
20424;BME280;10371;49.042;8.002;2023-07-29T01:53:47;99257.81;;;19.03;100.00
20424;BME280;10371;49.042;8.002;2023-07-29T01:54:47;99258.44;;;19.05;100.00
20424;BME280;10371;49.042;8.002;2023-07-29T01:55:47;99264.34;;;19.07;100.00
20424;BME280;10371;49.042;8.002;2023-07-29T01:56:47;99260.09;;;19.06;100.00
20424;BME280;10371;49.042;8.002;2023-07-29T01:57:48;99263.53;;;19.06;100.00
20424;BME280;10371;49.042;8.002;2023-07-29T01:58:48;99265.38;;;19.06;100.00
20424;BME280;10371;49.042;8.002;2023-07-29T01:59:48;99265.53;;;19.04;100.00
20424;BME280;10371;49.042;8.002;2023-07-29T02:00:48;99262.91;;;19.04;100.00
20424;BME280;10371;49.042;8.002;2023-07-29T02:01:49;99263.31;;;19.08;100.00
20424;BME280;10371;49.042;8.002;2023-07-29T02:02:49;99264.97;;;19.09;100.00
20424;BME280;10371;49.042;8.002;2023-07-29T02:03:49;99265.16;;;19.07;100.00
20424;BME280;10371;49.042;8.002;2023-07-29T02:04:54;99268.59;;;19.08;100.00
20424;BME280;10371;49.042;8.002;2023-07-29T02:05:55;99268.59;;;19.08;100.00
20424;BME280;10371;49.042;8.002;2023-07-29T02:06:56;99262.72;;;19.06;100.00
20424;BME280;10371;49.042;8.002;2023-07-29T02:07:56;99264.97;;;19.09;100.00
20424;BME280;10371;49.042;8.002;2023-07-29T02:08:56;99262.53;;;19.07;100.00
20424;BME280;10371;49.042;8.002;2023-07-29T02:09:57;99258.06;;;19.08;100.00
20424;BME280;10371;49.042;8.002;2023-07-29T02:10:57;99270.03;;;19.10;100.00
20424;BME280;10371;49.042;8.002;2023-07-29T02:11:57;99272.69;;;19.10;100.00
20424;BME280;10371;49.042;8.002;2023-07-29T02:12:58;99258.84;;;19.08;100.00
20424;BME280;10371;49.042;8.002;2023-07-29T02:13:58;99268.03;;;19.12;100.00
20424;BME280;10371;49.042;8.002;2023-07-29T02:14:58;99270.50;;;19.14;100.00
20424;BME280;10371;49.042;8.002;2023-07-29T02:15:58;99261.56;;;19.15;100.00
20424;BME280;10371;49.042;8.002;2023-07-29T02:16:59;99260.53;;;19.16;100.00
20424;BME280;10371;49.042;8.002;2023-07-29T02:17:59;99257.91;;;19.16;100.00
20424;BME280;10371;49.042;8.002;2023-07-29T02:19:02;99252.63;;;19.16;100.00
20424;BME280;10371;49.042;8.002;2023-07-29T02:20:03;99246.53;;;19.15;100.00
20424;BME280;10371;49.042;8.002;2023-07-29T02:21:03;99251.44;;;19.18;100.00
20424;BME280;10371;49.042;8.002;2023-07-29T02:22:04;99251.81;;;19.15;100.00
20424;BME280;10371;49.042;8.002;2023-07-29T02:23:05;99261.97;;;19.18;100.00
20424;BME280;10371;49.042;8.002;2023-07-29T02:24:05;99254.28;;;19.17;100.00
20424;BME280;10371;49.042;8.002;2023-07-29T02:25:05;99255.91;;;19.18;100.00
20424;BME280;10371;49.042;8.002;2023-07-29T02:26:06;99256.72;;;19.18;100.00
20424;BME280;10371;49.042;8.002;2023-07-29T02:27:06;99260.16;;;19.19;100.00
20424;BME280;10371;49.042;8.002;2023-07-29T02:28:06;99254.28;;;19.17;100.00
20424;BME280;10371;49.042;8.002;2023-07-29T02:29:07;99258.34;;;19.19;100.00
20424;BME280;10371;49.042;8.002;2023-07-29T02:30:07;99261.81;;;19.20;100.00
20424;BME280;10371;49.042;8.002;2023-07-29T02:31:20;99257.34;;;19.20;100.00
20424;BME280;10371;49.042;8.002;2023-07-29T02:32:21;99257.34;;;19.20;100.00
20424;BME280;10371;49.042;8.002;2023-07-29T02:33:21;99253.50;;;19.23;100.00
20424;BME280;10371;49.042;8.002;2023-07-29T02:34:21;99244.78;;;19.23;100.00
20424;BME280;10371;49.042;8.002;2023-07-29T02:35:22;99249.03;;;19.24;100.00
20424;BME280;10371;49.042;8.002;2023-07-29T02:36:22;99252.69;;;19.23;100.00
20424;BME280;10371;49.042;8.002;2023-07-29T02:37:22;99249.03;;;19.24;100.00
20424;BME280;10371;49.042;8.002;2023-07-29T02:38:22;99245.59;;;19.23;100.00
20424;BME280;10371;49.042;8.002;2023-07-29T02:39:23;99246.56;;;19.22;100.00
20424;BME280;10371;49.042;8.002;2023-07-29T02:40:23;99240.47;;;19.22;100.00
20424;BME280;10371;49.042;8.002;2023-07-29T02:41:26;99243.13;;;19.22;100.00
20424;BME280;10371;49.042;8.002;2023-07-29T02:42:27;99244.78;;;19.23;100.00
20424;BME280;10371;49.042;8.002;2023-07-29T02:43:27;99248.41;;;19.22;100.00
20424;BME280;10371;49.042;8.002;2023-07-29T02:44:27;99242.53;;;19.19;100.00
20424;BME280;10371;49.042;8.002;2023-07-29T02:45:27;99227.03;;;19.10;100.00
20424;BME280;10371;49.042;8.002;2023-07-29T02:46:28;99239.88;;;19.19;100.00
20424;BME280;10371;49.042;8.002;2023-07-29T02:47:29;99238.06;;;19.20;100.00
20424;BME280;10371;49.042;8.002;2023-07-29T02:48:29;99237.03;;;19.21;100.00
20424;BME280;10371;49.042;8.002;2023-07-29T02:49:30;99241.50;;;19.20;100.00
20424;BME280;10371;49.042;8.002;2023-07-29T02:50:30;99237.25;;;19.19;100.00
20424;BME280;10371;49.042;8.002;2023-07-29T02:51:30;99238.22;;;19.18;100.00
20424;BME280;10371;49.042;8.002;2023-07-29T02:52:31;99231.34;;;19.17;100.00
20424;BME280;10371;49.042;8.002;2023-07-29T02:53:31;99232.31;;;19.16;100.00
20424;BME280;10371;49.042;8.002;2023-07-29T02:54:31;99230.31;;;19.18;100.00
20424;BME280;10371;49.042;8.002;2023-07-29T02:55:32;99232.31;;;19.16;100.00
20424;BME280;10371;49.042;8.002;2023-07-29T02:56:32;99237.44;;;19.18;100.00
20424;BME280;10371;49.042;8.002;2023-07-29T02:57:32;99229.69;;;19.16;100.00
20424;BME280;10371;49.042;8.002;2023-07-29T02:58:32;99234.16;;;19.16;100.00
20424;BME280;10371;49.042;8.002;2023-07-29T02:59:33;99232.31;;;19.16;100.00
20424;BME280;10371;49.042;8.002;2023-07-29T03:00:33;99221.78;;;19.16;100.00
20424;BME280;10371;49.042;8.002;2023-07-29T03:01:34;99213.25;;;19.14;100.00
20424;BME280;10371;49.042;8.002;2023-07-29T03:02:34;99208.97;;;19.13;100.00
20424;BME280;10371;49.042;8.002;2023-07-29T03:03:34;99206.34;;;19.13;100.00
20424;BME280;10371;49.042;8.002;2023-07-29T03:04:34;99198.41;;;19.13;100.00
20424;BME280;10371;49.042;8.002;2023-07-29T03:05:35;99200.06;;;19.14;100.00
20424;BME280;10371;49.042;8.002;2023-07-29T03:06:35;99202.69;;;19.14;100.00
20424;BME280;10371;49.042;8.002;2023-07-29T03:07:36;99194.78;;;19.14;100.00
20424;BME280;10371;49.042;8.002;2023-07-29T03:08:36;99187.25;;;19.11;100.00
20424;BME280;10371;49.042;8.002;2023-07-29T03:09:36;99189.06;;;19.11;100.00
20424;BME280;10371;49.042;8.002;2023-07-29T03:10:37;99198.41;;;19.13;100.00
20424;BME280;10371;49.042;8.002;2023-07-29T03:11:37;99190.50;;;19.13;100.00
20424;BME280;10371;49.042;8.002;2023-07-29T03:12:38;99180.16;;;19.12;100.00
20424;BME280;10371;49.042;8.002;2023-07-29T03:13:38;99186.25;;;19.12;100.00
20424;BME280;10371;49.042;8.002;2023-07-29T03:14:38;99182.78;;;19.12;100.00
20424;BME280;10371;49.042;8.002;2023-07-29T03:15:39;99184.81;;;19.10;100.00
20424;BME280;10371;49.042;8.002;2023-07-29T03:16:39;99182.34;;;19.08;100.00
20424;BME280;10371;49.042;8.002;2023-07-29T03:17:39;99190.25;;;19.08;100.00
20424;BME280;10371;49.042;8.002;2023-07-29T03:18:41;99177.47;;;19.05;100.00
20424;BME280;10371;49.042;8.002;2023-07-29T03:19:41;99182.75;;;19.05;100.00
20424;BME280;10371;49.042;8.002;2023-07-29T03:20:42;99188.66;;;19.07;100.00
20424;BME280;10371;49.042;8.002;2023-07-29T03:21:42;99193.13;;;19.07;100.00
20424;BME280;10371;49.042;8.002;2023-07-29T03:22:43;99186.00;;;19.07;100.00
20424;BME280;10371;49.042;8.002;2023-07-29T03:23:43;99188.66;;;19.07;100.00
20424;BME280;10371;49.042;8.002;2023-07-29T03:24:43;99188.00;;;19.05;100.00
20424;BME280;10371;49.042;8.002;2023-07-29T03:25:44;99179.09;;;19.06;100.00
20424;BME280;10371;49.042;8.002;2023-07-29T03:26:48;99190.25;;;19.08;100.00
20424;BME280;10371;49.042;8.002;2023-07-29T03:27:48;99187.84;;;19.07;100.00
20424;BME280;10371;49.042;8.002;2023-07-29T03:28:49;99195.53;;;19.08;100.00
20424;BME280;10371;49.042;8.002;2023-07-29T03:29:49;99191.69;;;19.11;100.00
20424;BME280;10371;49.042;8.002;2023-07-29T03:30:50;99195.34;;;19.10;100.00
20424;BME280;10371;49.042;8.002;2023-07-29T03:31:50;99189.91;;;19.11;100.00
20424;BME280;10371;49.042;8.002;2023-07-29T03:32:50;99187.44;;;19.10;100.00
20424;BME280;10371;49.042;8.002;2023-07-29T03:33:51;99190.72;;;19.12;100.00
20424;BME280;10371;49.042;8.002;2023-07-29T03:34:51;99191.53;;;19.12;100.00
20424;BME280;10371;49.042;8.002;2023-07-29T03:35:52;99192.53;;;19.11;100.00
20424;BME280;10371;49.042;8.002;2023-07-29T03:36:53;99194.78;;;19.14;100.00
20424;BME280;10371;49.042;8.002;2023-07-29T03:37:53;99195.78;;;19.13;100.00
20424;BME280;10371;49.042;8.002;2023-07-29T03:38:53;99200.88;;;19.15;100.00
20424;BME280;10371;49.042;8.002;2023-07-29T03:39:54;99207.59;;;19.17;100.00
20424;BME280;10371;49.042;8.002;2023-07-29T03:40:54;99211.84;;;19.18;100.00
20424;BME280;10371;49.042;8.002;2023-07-29T03:41:54;99206.78;;;19.17;100.00
20424;BME280;10371;49.042;8.002;2023-07-29T03:42:54;99216.13;;;19.19;100.00
20424;BME280;10371;49.042;8.002;2023-07-29T03:43:55;99216.13;;;19.19;100.00
20424;BME280;10371;49.042;8.002;2023-07-29T03:44:55;99221.19;;;19.14;100.00
20424;BME280;10371;49.042;8.002;2023-07-29T03:45:55;99214.88;;;19.15;100.00
20424;BME280;10371;49.042;8.002;2023-07-29T03:46:56;99197.19;;;19.09;100.00
20424;BME280;10371;49.042;8.002;2023-07-29T03:47:56;99199.03;;;19.09;100.00
20424;BME280;10371;49.042;8.002;2023-07-29T03:48:56;99197.19;;;19.09;100.00
20424;BME280;10371;49.042;8.002;2023-07-29T03:49:57;99200.00;;;19.08;100.00
20424;BME280;10371;49.042;8.002;2023-07-29T03:50:57;99195.75;;;19.07;100.00
20424;BME280;10371;49.042;8.002;2023-07-29T03:51:57;99198.19;;;19.08;100.00
20424;BME280;10371;49.042;8.002;2023-07-29T03:52:58;99192.91;;;19.08;100.00
20424;BME280;10371;49.042;8.002;2023-07-29T03:53:58;99198.19;;;19.08;100.00
20424;BME280;10371;49.042;8.002;2023-07-29T03:54:58;99197.75;;;19.05;100.00
20424;BME280;10371;49.042;8.002;2023-07-29T03:55:58;99198.56;;;19.05;100.00
20424;BME280;10371;49.042;8.002;2023-07-29T03:56:59;99196.31;;;19.02;100.00
20424;BME280;10371;49.042;8.002;2023-07-29T03:57:59;99203.44;;;19.02;100.00
20424;BME280;10371;49.042;8.002;2023-07-29T03:59:04;99198.97;;;19.02;100.00
20424;BME280;10371;49.042;8.002;2023-07-29T04:00:05;99199.59;;;19.04;100.00
20424;BME280;10371;49.042;8.002;2023-07-29T04:01:05;99201.22;;;19.05;100.00
20424;BME280;10371;49.042;8.002;2023-07-29T04:02:06;99197.13;;;19.03;100.00
20424;BME280;10371;49.042;8.002;2023-07-29T04:03:06;99202.84;;;19.06;100.00
20424;BME280;10371;49.042;8.002;2023-07-29T04:04:06;99210.38;;;19.09;100.00
20424;BME280;10371;49.042;8.002;2023-07-29T04:05:07;99209.56;;;19.09;100.00
20424;BME280;10371;49.042;8.002;2023-07-29T04:06:08;99205.91;;;19.10;100.00
20424;BME280;10371;49.042;8.002;2023-07-29T04:07:08;99203.66;;;19.07;100.00
20424;BME280;10371;49.042;8.002;2023-07-29T04:08:09;99206.09;;;19.08;100.00
20424;BME280;10371;49.042;8.002;2023-07-29T04:09:10;99205.09;;;19.09;100.00
20424;BME280;10371;49.042;8.002;2023-07-29T04:10:10;99205.09;;;19.09;100.00
20424;BME280;10371;49.042;8.002;2023-07-29T04:11:11;99200.63;;;19.10;100.00
20424;BME280;10371;49.042;8.002;2023-07-29T04:12:11;99212.81;;;19.11;100.00
20424;BME280;10371;49.042;8.002;2023-07-29T04:13:11;99212.81;;;19.11;100.00
20424;BME280;10371;49.042;8.002;2023-07-29T04:14:12;99206.53;;;19.12;100.00
20424;BME280;10371;49.042;8.002;2023-07-29T04:15:12;99210.00;;;19.12;100.00
20424;BME280;10371;49.042;8.002;2023-07-29T04:16:12;99206.53;;;19.12;100.00
20424;BME280;10371;49.042;8.002;2023-07-29T04:17:13;99210.78;;;19.13;100.00
20424;BME280;10371;49.042;8.002;2023-07-29T04:18:13;99207.97;;;19.14;100.00
20424;BME280;10371;49.042;8.002;2023-07-29T04:19:13;99196.22;;;19.17;100.00
20424;BME280;10371;49.042;8.002;2023-07-29T04:20:14;99204.75;;;19.19;100.00
20424;BME280;10371;49.042;8.002;2023-07-29T04:21:14;99190.09;;;19.16;100.00
20424;BME280;10371;49.042;8.002;2023-07-29T04:22:16;99195.84;;;19.20;100.00
20424;BME280;10371;49.042;8.002;2023-07-29T04:23:16;99200.09;;;19.21;100.00
20424;BME280;10371;49.042;8.002;2023-07-29T04:24:16;99196.63;;;19.20;100.00
20424;BME280;10371;49.042;8.002;2023-07-29T04:25:17;99198.88;;;19.24;100.00
20424;BME280;10371;49.042;8.002;2023-07-29T04:26:17;99201.34;;;19.25;100.00
20424;BME280;10371;49.042;8.002;2023-07-29T04:27:17;99203.13;;;19.25;100.00
20424;BME280;10371;49.042;8.002;2023-07-29T04:28:18;99208.41;;;19.25;100.00
20424;BME280;10371;49.042;8.002;2023-07-29T04:29:18;99206.41;;;19.27;100.00
20424;BME280;10371;49.042;8.002;2023-07-29T04:30:18;99210.88;;;19.26;100.00
20424;BME280;10371;49.042;8.002;2023-07-29T04:31:18;99202.16;;;19.26;100.00
20424;BME280;10371;49.042;8.002;2023-07-29T04:32:19;99195.84;;;19.27;100.00
20424;BME280;10371;49.042;8.002;2023-07-29T04:33:19;99199.50;;;19.26;100.00
20424;BME280;10371;49.042;8.002;2023-07-29T04:34:19;99197.47;;;19.28;100.00
20424;BME280;10371;49.042;8.002;2023-07-29T04:35:20;99196.06;;;19.25;100.00
20424;BME280;10371;49.042;8.002;2023-07-29T04:36:20;99201.75;;;19.29;100.00
20424;BME280;10371;49.042;8.002;2023-07-29T04:37:20;99211.50;;;19.28;100.00
20424;BME280;10371;49.042;8.002;2023-07-29T04:38:21;99210.06;;;19.26;100.00
20424;BME280;10371;49.042;8.002;2023-07-29T04:39:21;99212.72;;;19.26;100.00
20424;BME280;10371;49.042;8.002;2023-07-29T04:40:21;99215.34;;;19.26;100.00
20424;BME280;10371;49.042;8.002;2023-07-29T04:41:22;99208.03;;;19.28;100.00
20424;BME280;10371;49.042;8.002;2023-07-29T04:42:23;99201.13;;;19.27;100.00
20424;BME280;10371;49.042;8.002;2023-07-29T04:43:27;99212.09;;;19.30;100.00
20424;BME280;10371;49.042;8.002;2023-07-29T04:44:27;99208.66;;;19.30;100.00
20424;BME280;10371;49.042;8.002;2023-07-29T04:45:28;99203.59;;;19.28;100.00
20424;BME280;10371;49.042;8.002;2023-07-29T04:46:29;99201.13;;;19.27;100.00
20424;BME280;10371;49.042;8.002;2023-07-29T04:47:29;99204.41;;;19.29;100.00
20424;BME280;10371;49.042;8.002;2023-07-29T04:48:30;99205.84;;;19.31;100.00
20424;BME280;10371;49.042;8.002;2023-07-29T04:49:30;99209.28;;;19.32;100.00
20424;BME280;10371;49.042;8.002;2023-07-29T04:50:30;99212.56;;;19.34;100.00
20424;BME280;10371;49.042;8.002;2023-07-29T04:51:30;99216.19;;;19.33;100.00
20424;BME280;10371;49.042;8.002;2023-07-29T04:52:34;99215.19;;;19.34;100.00
20424;BME280;10371;49.042;8.002;2023-07-29T04:53:34;99218.63;;;19.34;100.00
20424;BME280;10371;49.042;8.002;2023-07-29T04:54:36;99215.19;;;19.34;100.00
20424;BME280;10371;49.042;8.002;2023-07-29T04:55:36;99217.00;;;19.33;100.00
20424;BME280;10371;49.042;8.002;2023-07-29T04:56:37;99216.00;;;19.34;100.00
20424;BME280;10371;49.042;8.002;2023-07-29T04:57:37;99221.91;;;19.36;100.00
20424;BME280;10371;49.042;8.002;2023-07-29T04:58:37;99223.53;;;19.37;100.00
20424;BME280;10371;49.042;8.002;2023-07-29T04:59:37;99223.13;;;19.40;100.00
20424;BME280;10371;49.042;8.002;2023-07-29T05:00:38;99220.31;;;19.42;100.00
20424;BME280;10371;49.042;8.002;2023-07-29T05:01:38;99221.13;;;19.42;100.00
20424;BME280;10371;49.042;8.002;2023-07-29T05:02:39;99229.66;;;19.45;100.00
20424;BME280;10371;49.042;8.002;2023-07-29T05:03:39;99223.53;;;19.44;100.00
20424;BME280;10371;49.042;8.002;2023-07-29T05:04:40;99217.06;;;19.47;100.00
20424;BME280;10371;49.042;8.002;2023-07-29T05:05:40;99216.06;;;19.48;100.00
20424;BME280;10371;49.042;8.002;2023-07-29T05:06:40;99211.19;;;19.51;100.00
20424;BME280;10371;49.042;8.002;2023-07-29T05:07:40;99210.00;;;19.54;100.00
20424;BME280;10371;49.042;8.002;2023-07-29T05:08:41;99222.22;;;19.61;100.00
20424;BME280;10371;49.042;8.002;2023-07-29T05:09:41;99220.38;;;19.62;100.00
20424;BME280;10371;49.042;8.002;2023-07-29T05:10:41;99226.28;;;19.64;100.00
20424;BME280;10371;49.042;8.002;2023-07-29T05:11:42;99229.75;;;19.64;100.00
20424;BME280;10371;49.042;8.002;2023-07-29T05:12:45;99231.22;;;19.67;100.00
20424;BME280;10371;49.042;8.002;2023-07-29T05:13:45;99225.72;;;19.69;100.00
20424;BME280;10371;49.042;8.002;2023-07-29T05:14:45;99232.25;;;19.73;100.00
20424;BME280;10371;49.042;8.002;2023-07-29T05:15:49;99229.41;;;19.74;100.00
20424;BME280;10371;49.042;8.002;2023-07-29T05:16:49;99227.78;;;19.73;100.00
20424;BME280;10371;49.042;8.002;2023-07-29T05:17:50;99228.59;;;19.74;100.00
20424;BME280;10371;49.042;8.002;2023-07-29T05:18:50;99225.13;;;19.73;100.00
20424;BME280;10371;49.042;8.002;2023-07-29T05:19:50;99228.59;;;19.74;100.00
20424;BME280;10371;49.042;8.002;2023-07-29T05:20:51;99222.09;;;19.76;100.00
20424;BME280;10371;49.042;8.002;2023-07-29T05:21:51;99220.88;;;19.79;100.00
20424;BME280;10371;49.042;8.002;2023-07-29T05:22:51;99218.25;;;19.79;100.00
20424;BME280;10371;49.042;8.002;2023-07-29T05:23:51;99227.00;;;19.86;100.00
20424;BME280;10371;49.042;8.002;2023-07-29T05:24:52;99219.28;;;19.91;100.00